CheckWX is a tool to help pilots better visualize weather data.  It is not intended as a substitute for an official pre-flight weather briefing.

12:50:32 UTC

SBSN TAF
Maestro Wilson Fonseca Airport
Santarém, Brazil
TAF SBSN 190900Z 1912/2012 10010KT 9999 FEW020 TX34/1917Z TN25/2007Z BECMG 1912/1914 SCT017 BECMG 1915/1917 FEW020 BECMG 1918/1920 FEW020 FEW025TCU PROB30 2000/2006 TS SCT017 FEW025CB BECMG 2006/2008 CAVOK BECMG 2010/2012 10015KT RMK PGS

Sep-19@
12:00 UTC

Sep-19 @ 12:00 UTC

Sep-20@
12:00 UTC

Sep-20 @ 12:00 UTC

TAF SBSN 190900Z 1912/2012 10010KT 9999 FEW020 TX34/1917Z TN25/2007Z
Wind
  • 100° at 10 KTS
Cloud Levels
  • Few at 2,000' AGL

Sep-19@
12:00 UTC

Sep-19 @ 12:00 UTC

Sep-19@
15:00 UTC

Sep-19 @ 15:00 UTC

BECMG 1912/1914 SCT017

Becoming

Becoming Conditions expected by Thu, Sep 19, 2019 @ 14:00 UTC

Wind
  • 100° at 10 KTS
Cloud Levels
  • Scattered at 1,700' AGL

Sep-19@
15:00 UTC

Sep-19 @ 15:00 UTC

Sep-19@
18:00 UTC

Sep-19 @ 18:00 UTC

BECMG 1915/1917 FEW020

Becoming

Becoming Conditions expected by Thu, Sep 19, 2019 @ 17:00 UTC

Wind
  • 100° at 10 KTS
Cloud Levels
  • Few at 2,000' AGL

Sep-19@
18:00 UTC

Sep-19 @ 18:00 UTC

Sep-20@
06:00 UTC

Sep-20 @ 06:00 UTC

BECMG 1918/1920 FEW020 FEW025TCU

Becoming

Becoming Conditions expected by Thu, Sep 19, 2019 @ 20:00 UTC

Wind
  • 100° at 10 KTS
Cloud Levels
  • Few at 2,000' AGL
  • Few at 2,500' AGL

Sep-20@
00:00 UTC

Sep-20 @ 00:00 UTC

Sep-20@
06:00 UTC

Sep-20 @ 06:00 UTC

PROB30 2000/2006 TS SCT017 FEW025CB

Probable - 30% Likelihood

Probable - 30% Likelihood during this time.

Conditions
Thunderstorm
Cloud Levels
  • Scattered at 1,700' AGL
  • Few at 2,500' AGL

Sep-20@
06:00 UTC

Sep-20 @ 06:00 UTC

Sep-20@
10:00 UTC

Sep-20 @ 10:00 UTC

BECMG 2006/2008 CAVOK

Becoming

Becoming Conditions expected by Fri, Sep 20, 2019 @ 08:00 UTC

Wind
  • 100° at 10 KTS
Conditions
No significant weather
Cloud Levels
  • No significant clouds

Sep-20@
10:00 UTC

Sep-20 @ 10:00 UTC

Sep-20@
12:00 UTC

Sep-20 @ 12:00 UTC

BECMG 2010/2012 10015KT RMK PGS

Becoming

Becoming Conditions expected by Fri, Sep 20, 2019 @ 12:00 UTC

Wind
  • 100° at 15 KTS
Conditions
No significant weather
Cloud Levels
  • No significant clouds